Time,TemperatureF,DewpointF,PressureIn,WindDirection,WindDirectionDegrees,WindSpeedMPH,WindSpeedGustMPH,Humidity,HourlyPrecipIn,Conditions,Clouds,dailyrainin,SoftwareType,DateUTC
2013-01-24 00:00:00,19.0,18.0,-100.00,West,275,22.0,32.0,97,-99.99,,,-99.99,,2013-01-24 08:00:00,
2013-01-24 00:53:00,19.0,18.0,-100.00,West,275,22.0,32.0,97,-99.99,,,-99.99,,2013-01-24 08:53:00,
2013-01-24 01:00:00,18.0,17.0,-100.00,WNW,283,18.0,25.0,97,-99.99,,,-99.99,,2013-01-24 09:00:00,
2013-01-24 02:00:00,17.0,15.0,-100.00,West,259,17.0,30.0,93,-99.99,,,-99.99,,2013-01-24 10:00:00,
2013-01-24 03:00:00,18.0,13.0,-100.00,WSW,244,22.0,33.0,82,-99.99,,,-99.99,,2013-01-24 11:00:00,
2013-01-24 04:00:00,18.0,5.0,-100.00,WNW,291,24.0,35.0,57,-99.99,,,-99.99,,2013-01-24 12:00:00,
2013-01-24 05:00:00,18.0,6.0,-100.00,West,260,21.0,32.0,58,-99.99,,,-99.99,,2013-01-24 13:00:00,
2013-01-24 06:00:00,19.0,3.0,-100.00,West,268,20.0,31.0,50,-99.99,,,-99.99,,2013-01-24 14:00:00,
2013-01-24 07:00:00,20.0,-4.0,-100.00,SW,221,14.0,23.0,34,-99.99,,,-99.99,,2013-01-24 15:00:00,
2013-01-24 08:00:00,20.0,2.0,-100.00,SE,141,7.0,13.0,45,-99.99,,,-99.99,,2013-01-24 16:00:00,
2013-01-24 09:00:00,26.0,4.0,-100.00,SSE,153,7.0,12.0,38,-99.99,,,-99.99,,2013-01-24 17:00:00,
2013-01-24 10:00:00,25.0,-8.0,-100.00,SSW,207,22.0,35.0,23,-99.99,,,-99.99,,2013-01-24 18:00:00,
2013-01-24 12:00:00,29.0,-3.0,-100.00,SSW,211,31.0,44.0,24,-99.99,,,-99.99,,2013-01-24 20:00:00,
2013-01-24 13:00:00,28.0,-10.0,-100.00,WSW,255,31.0,50.0,18,-99.99,,,-99.99,,2013-01-24 21:00:00,
2013-01-24 14:00:00,29.0,-9.0,-100.00,South,174,23.0,38.0,18,-99.99,,,-99.99,,2013-01-24 22:00:00,
2013-01-24 15:00:00,29.0,-2.0,-100.00,SSW,194,29.0,53.0,26,-99.99,,,-99.99,,2013-01-24 23:00:00,
2013-01-24 16:00:00,27.0,14.0,-100.00,NE,40,27.0,44.0,57,-99.99,,,-99.99,,2013-01-25 00:00:00,
2013-01-24 17:00:00,26.0,23.0,-100.00,WSW,244,22.0,47.0,90,-99.99,,,-99.99,,2013-01-25 01:00:00,
2013-01-24 18:00:00,26.0,26.0,-100.00,SW,228,27.0,50.0,100,-99.99,,,-99.99,,2013-01-25 02:00:00,
2013-01-24 19:00:00,26.0,26.0,-100.00,SW,220,29.0,54.0,100,-99.99,,,-99.99,,2013-01-25 03:00:00,
2013-01-24 20:00:00,27.0,27.0,-100.00,SW,221,32.0,54.0,100,-99.99,,,-99.99,,2013-01-25 04:00:00,
2013-01-24 21:00:00,27.0,27.0,-100.00,SW,215,36.0,58.0,100,-99.99,,,-99.99,,2013-01-25 05:00:00,
2013-01-24 22:00:00,27.0,27.0,-100.00,WSW,237,37.0,52.0,100,-99.99,,,-99.99,,2013-01-25 06:00:00,
2013-01-24 23:00:00,27.0,27.0,-100.00,SW,218,33.0,50.0,100,-99.99,,,-99.99,,2013-01-25 07:00:00,